sensor_id;sensor_type;location;lat;lon;timestamp;P1;durP1;ratioP1;P2;durP2;ratioP2
64543;SDS011;50936;51.660;5.616;2023-06-04T06:30:50;3.47;;;1.60;;
64543;SDS011;50936;51.660;5.616;2023-06-04T06:33:17;3.92;;;1.70;;
64543;SDS011;50936;51.660;5.616;2023-06-04T06:35:50;3.67;;;1.58;;
64543;SDS011;50936;51.660;5.616;2023-06-04T06:38:34;5.80;;;1.80;;
64543;SDS011;50936;51.660;5.616;2023-06-04T07:21:08;19.52;;;5.05;;
64543;SDS011;50936;51.660;5.616;2023-06-04T07:23:35;20.70;;;5.47;;
64543;SDS011;50936;51.660;5.616;2023-06-04T07:26:05;22.25;;;5.75;;
64543;SDS011;50936;51.660;5.616;2023-06-04T07:28:33;22.10;;;4.50;;
64543;SDS011;50936;51.660;5.616;2023-06-04T07:31:00;16.67;;;4.35;;
64543;SDS011;50936;51.660;5.616;2023-06-04T07:33:27;17.65;;;5.40;;
64543;SDS011;50936;51.660;5.616;2023-06-04T07:35:54;19.20;;;5.53;;
64543;SDS011;50936;51.660;5.616;2023-06-04T07:38:25;20.27;;;5.63;;
64543;SDS011;50936;51.660;5.616;2023-06-04T07:40:53;28.42;;;7.28;;
64543;SDS011;50936;51.660;5.616;2023-06-04T07:43:20;23.90;;;6.18;;
64543;SDS011;50936;51.660;5.616;2023-06-04T07:45:47;20.30;;;5.70;;
64543;SDS011;50936;51.660;5.616;2023-06-04T07:48:14;26.90;;;5.90;;
64543;SDS011;50936;51.660;5.616;2023-06-04T07:50:41;28.58;;;6.80;;
64543;SDS011;50936;51.660;5.616;2023-06-04T07:53:07;22.73;;;6.00;;
64543;SDS011;50936;51.660;5.616;2023-06-04T07:55:37;22.63;;;6.22;;
64543;SDS011;50936;51.660;5.616;2023-06-04T07:58:04;21.13;;;6.28;;
64543;SDS011;50936;51.660;5.616;2023-06-04T08:00:32;24.38;;;6.20;;
64543;SDS011;50936;51.660;5.616;2023-06-04T08:02:59;29.38;;;6.32;;
64543;SDS011;50936;51.660;5.616;2023-06-04T08:05:26;23.38;;;6.65;;
64543;SDS011;50936;51.660;5.616;2023-06-04T08:07:53;27.58;;;6.65;;
64543;SDS011;50936;51.660;5.616;2023-06-04T08:10:19;24.95;;;7.07;;
64543;SDS011;50936;51.660;5.616;2023-06-04T08:12:46;23.58;;;6.93;;
64543;SDS011;50936;51.660;5.616;2023-06-04T08:15:13;22.38;;;5.93;;
64543;SDS011;50936;51.660;5.616;2023-06-04T08:17:40;24.92;;;6.70;;
64543;SDS011;50936;51.660;5.616;2023-06-04T08:20:13;25.02;;;7.47;;
64543;SDS011;50936;51.660;5.616;2023-06-04T08:22:40;25.92;;;6.88;;
64543;SDS011;50936;51.660;5.616;2023-06-04T08:25:07;32.72;;;7.70;;
64543;SDS011;50936;51.660;5.616;2023-06-04T08:27:35;26.15;;;6.65;;
64543;SDS011;50936;51.660;5.616;2023-06-04T08:30:04;23.75;;;6.45;;
64543;SDS011;50936;51.660;5.616;2023-06-04T08:32:33;24.88;;;6.55;;
64543;SDS011;50936;51.660;5.616;2023-06-04T08:35:00;23.25;;;7.15;;
64543;SDS011;50936;51.660;5.616;2023-06-04T08:37:27;25.23;;;7.45;;
64543;SDS011;50936;51.660;5.616;2023-06-04T08:39:54;21.65;;;6.60;;
64543;SDS011;50936;51.660;5.616;2023-06-04T08:42:31;21.92;;;6.30;;
64543;SDS011;50936;51.660;5.616;2023-06-04T08:45:08;23.52;;;6.80;;
64543;SDS011;50936;51.660;5.616;2023-06-04T08:47:48;26.13;;;7.32;;
64543;SDS011;50936;51.660;5.616;2023-06-04T08:50:18;21.45;;;7.05;;
64543;SDS011;50936;51.660;5.616;2023-06-04T08:52:53;20.15;;;6.78;;
64543;SDS011;50936;51.660;5.616;2023-06-04T08:55:21;27.65;;;7.13;;
64543;SDS011;50936;51.660;5.616;2023-06-04T08:57:49;25.13;;;7.10;;
64543;SDS011;50936;51.660;5.616;2023-06-04T09:00:18;23.45;;;6.45;;
64543;SDS011;50936;51.660;5.616;2023-06-04T09:02:46;22.38;;;6.70;;
64543;SDS011;50936;51.660;5.616;2023-06-04T09:05:23;23.05;;;7.35;;
64543;SDS011;50936;51.660;5.616;2023-06-04T09:07:53;22.77;;;7.20;;
64543;SDS011;50936;51.660;5.616;2023-06-04T09:10:26;20.85;;;6.57;;
64543;SDS011;50936;51.660;5.616;2023-06-04T09:12:57;22.75;;;6.22;;
64543;SDS011;50936;51.660;5.616;2023-06-04T09:15:32;21.52;;;6.80;;
64543;SDS011;50936;51.660;5.616;2023-06-04T09:17:59;24.20;;;7.00;;
64543;SDS011;50936;51.660;5.616;2023-06-04T09:20:28;19.50;;;6.72;;
64543;SDS011;50936;51.660;5.616;2023-06-04T09:22:55;22.98;;;7.45;;
64543;SDS011;50936;51.660;5.616;2023-06-04T09:25:23;23.85;;;7.00;;
64543;SDS011;50936;51.660;5.616;2023-06-04T09:27:52;19.38;;;6.47;;
64543;SDS011;50936;51.660;5.616;2023-06-04T09:30:22;21.73;;;7.50;;
64543;SDS011;50936;51.660;5.616;2023-06-04T09:32:50;21.30;;;6.55;;
64543;SDS011;50936;51.660;5.616;2023-06-04T09:35:17;20.75;;;6.95;;
64543;SDS011;50936;51.660;5.616;2023-06-04T09:37:55;25.50;;;7.80;;
64543;SDS011;50936;51.660;5.616;2023-06-04T09:40:34;22.45;;;6.90;;
64543;SDS011;50936;51.660;5.616;2023-06-04T09:43:03;23.58;;;7.03;;
64543;SDS011;50936;51.660;5.616;2023-06-04T09:45:31;21.63;;;6.07;;
64543;SDS011;50936;51.660;5.616;2023-06-04T09:48:01;18.85;;;6.75;;
64543;SDS011;50936;51.660;5.616;2023-06-04T09:50:33;22.45;;;7.03;;
64543;SDS011;50936;51.660;5.616;2023-06-04T09:53:12;20.05;;;6.40;;
64543;SDS011;50936;51.660;5.616;2023-06-04T09:55:58;22.63;;;6.57;;
64543;SDS011;50936;51.660;5.616;2023-06-04T09:58:37;20.95;;;5.95;;
64543;SDS011;50936;51.660;5.616;2023-06-04T10:01:07;20.30;;;6.30;;
64543;SDS011;50936;51.660;5.616;2023-06-04T10:03:35;18.67;;;6.75;;
64543;SDS011;50936;51.660;5.616;2023-06-04T10:06:04;22.13;;;6.82;;
64543;SDS011;50936;51.660;5.616;2023-06-04T10:08:32;24.77;;;6.70;;
64543;SDS011;50936;51.660;5.616;2023-06-04T10:11:01;21.50;;;6.20;;
64543;SDS011;50936;51.660;5.616;2023-06-04T10:13:30;21.30;;;6.47;;
64543;SDS011;50936;51.660;5.616;2023-06-04T10:16:04;19.42;;;5.97;;
64543;SDS011;50936;51.660;5.616;2023-06-04T10:18:46;17.92;;;5.60;;
64543;SDS011;50936;51.660;5.616;2023-06-04T10:21:14;18.98;;;6.00;;
64543;SDS011;50936;51.660;5.616;2023-06-04T10:23:44;17.60;;;6.25;;
64543;SDS011;50936;51.660;5.616;2023-06-04T10:26:14;22.13;;;6.25;;
64543;SDS011;50936;51.660;5.616;2023-06-04T10:28:42;15.13;;;6.30;;
64543;SDS011;50936;51.660;5.616;2023-06-04T10:31:09;18.02;;;6.10;;
64543;SDS011;50936;51.660;5.616;2023-06-04T10:33:37;15.07;;;5.68;;
64543;SDS011;50936;51.660;5.616;2023-06-04T10:36:15;15.55;;;6.05;;
64543;SDS011;50936;51.660;5.616;2023-06-04T10:38:48;16.38;;;5.80;;
64543;SDS011;50936;51.660;5.616;2023-06-04T10:41:22;14.35;;;5.25;;
64543;SDS011;50936;51.660;5.616;2023-06-04T10:43:50;17.15;;;5.50;;
64543;SDS011;50936;51.660;5.616;2023-06-04T10:46:36;17.77;;;5.57;;
64543;SDS011;50936;51.660;5.616;2023-06-04T10:49:09;18.40;;;6.22;;
64543;SDS011;50936;51.660;5.616;2023-06-04T10:51:41;17.67;;;5.85;;
64543;SDS011;50936;51.660;5.616;2023-06-04T10:54:10;17.85;;;5.35;;
64543;SDS011;50936;51.660;5.616;2023-06-04T10:56:37;16.35;;;5.30;;
64543;SDS011;50936;51.660;5.616;2023-06-04T10:59:14;20.73;;;5.55;;
64543;SDS011;50936;51.660;5.616;2023-06-04T11:01:43;18.27;;;5.38;;
64543;SDS011;50936;51.660;5.616;2023-06-04T11:04:26;16.25;;;5.43;;
64543;SDS011;50936;51.660;5.616;2023-06-04T11:07:05;18.35;;;5.53;;
64543;SDS011;50936;51.660;5.616;2023-06-04T11:12:14;16.75;;;5.32;;
64543;SDS011;50936;51.660;5.616;2023-06-04T11:14:41;16.27;;;5.10;;
64543;SDS011;50936;51.660;5.616;2023-06-04T11:17:20;16.35;;;5.70;;
64543;SDS011;50936;51.660;5.616;2023-06-04T11:19:47;15.45;;;4.85;;
64543;SDS011;50936;51.660;5.616;2023-06-04T11:22:14;14.40;;;5.38;;
64543;SDS011;50936;51.660;5.616;2023-06-04T11:24:41;16.42;;;5.43;;
64543;SDS011;50936;51.660;5.616;2023-06-04T11:27:08;17.13;;;5.13;;
64543;SDS011;50936;51.660;5.616;2023-06-04T11:32:22;14.68;;;5.07;;
64543;SDS011;50936;51.660;5.616;2023-06-04T11:34:51;16.45;;;4.90;;
64543;SDS011;50936;51.660;5.616;2023-06-04T11:37:27;14.32;;;5.43;;
64543;SDS011;50936;51.660;5.616;2023-06-04T11:39:57;13.05;;;5.00;;
64543;SDS011;50936;51.660;5.616;2023-06-04T11:42:23;12.23;;;4.10;;
64543;SDS011;50936;51.660;5.616;2023-06-04T11:44:55;12.73;;;4.43;;
64543;SDS011;50936;51.660;5.616;2023-06-04T11:47:25;17.42;;;4.82;;
64543;SDS011;50936;51.660;5.616;2023-06-04T11:49:55;12.43;;;4.50;;
64543;SDS011;50936;51.660;5.616;2023-06-04T11:52:23;13.75;;;4.53;;
64543;SDS011;50936;51.660;5.616;2023-06-04T11:54:50;12.75;;;4.05;;
64543;SDS011;50936;51.660;5.616;2023-06-04T11:57:18;12.90;;;4.60;;
64543;SDS011;50936;51.660;5.616;2023-06-04T11:59:45;14.13;;;3.92;;
64543;SDS011;50936;51.660;5.616;2023-06-04T12:02:12;13.18;;;4.18;;
64543;SDS011;50936;51.660;5.616;2023-06-04T12:04:39;10.95;;;4.05;;
64543;SDS011;50936;51.660;5.616;2023-06-04T12:07:06;14.73;;;4.13;;
64543;SDS011;50936;51.660;5.616;2023-06-04T12:09:35;9.32;;;4.07;;
64543;SDS011;50936;51.660;5.616;2023-06-04T12:12:05;8.95;;;3.60;;
64543;SDS011;50936;51.660;5.616;2023-06-04T12:14:34;9.60;;;3.97;;
64543;SDS011;50936;51.660;5.616;2023-06-04T12:17:08;10.38;;;3.78;;
64543;SDS011;50936;51.660;5.616;2023-06-04T12:19:48;10.23;;;4.15;;
64543;SDS011;50936;51.660;5.616;2023-06-04T12:22:17;12.27;;;4.05;;
64543;SDS011;50936;51.660;5.616;2023-06-04T12:27:20;7.90;;;3.30;;
64543;SDS011;50936;51.660;5.616;2023-06-04T12:29:56;14.68;;;3.67;;
64543;SDS011;50936;51.660;5.616;2023-06-04T12:32:34;12.52;;;3.83;;
64543;SDS011;50936;51.660;5.616;2023-06-04T12:35:02;9.75;;;3.50;;
64543;SDS011;50936;51.660;5.616;2023-06-04T12:37:29;10.45;;;3.38;;
64543;SDS011;50936;51.660;5.616;2023-06-04T12:39:56;8.63;;;3.17;;
64543;SDS011;50936;51.660;5.616;2023-06-04T12:42:23;9.98;;;2.97;;
64543;SDS011;50936;51.660;5.616;2023-06-04T12:44:50;9.52;;;3.45;;
64543;SDS011;50936;51.660;5.616;2023-06-04T12:47:17;11.23;;;3.17;;
64543;SDS011;50936;51.660;5.616;2023-06-04T12:49:44;9.23;;;3.03;;
64543;SDS011;50936;51.660;5.616;2023-06-04T12:52:11;9.07;;;3.25;;
64543;SDS011;50936;51.660;5.616;2023-06-04T12:54:41;7.15;;;2.97;;
64543;SDS011;50936;51.660;5.616;2023-06-04T12:57:09;8.95;;;2.92;;
64543;SDS011;50936;51.660;5.616;2023-06-04T12:59:36;6.72;;;2.80;;
64543;SDS011;50936;51.660;5.616;2023-06-04T13:02:03;9.10;;;3.45;;
64543;SDS011;50936;51.660;5.616;2023-06-04T13:04:30;6.85;;;2.55;;
64543;SDS011;50936;51.660;5.616;2023-06-04T13:06:57;8.52;;;3.30;;
64543;SDS011;50936;51.660;5.616;2023-06-04T13:09:26;6.72;;;2.47;;
64543;SDS011;50936;51.660;5.616;2023-06-04T13:11:55;9.95;;;2.67;;
64543;SDS011;50936;51.660;5.616;2023-06-04T13:14:22;8.70;;;2.60;;
64543;SDS011;50936;51.660;5.616;2023-06-04T13:16:49;7.22;;;2.63;;
64543;SDS011;50936;51.660;5.616;2023-06-04T13:19:18;7.28;;;2.72;;
64543;SDS011;50936;51.660;5.616;2023-06-04T13:21:47;6.10;;;2.70;;
64543;SDS011;50936;51.660;5.616;2023-06-04T13:24:14;8.18;;;2.55;;
64543;SDS011;50936;51.660;5.616;2023-06-04T13:26:42;9.30;;;2.78;;
64543;SDS011;50936;51.660;5.616;2023-06-04T13:29:09;7.72;;;2.78;;
64543;SDS011;50936;51.660;5.616;2023-06-04T13:31:36;6.30;;;2.53;;
64543;SDS011;50936;51.660;5.616;2023-06-04T13:34:05;8.02;;;2.50;;
64543;SDS011;50936;51.660;5.616;2023-06-04T13:36:52;7.32;;;2.45;;
64543;SDS011;50936;51.660;5.616;2023-06-04T13:39:18;8.93;;;2.72;;
64543;SDS011;50936;51.660;5.616;2023-06-04T13:41:45;9.30;;;2.72;;
64543;SDS011;50936;51.660;5.616;2023-06-04T13:44:12;6.43;;;2.45;;
64543;SDS011;50936;51.660;5.616;2023-06-04T13:46:40;6.45;;;2.42;;
64543;SDS011;50936;51.660;5.616;2023-06-04T13:49:08;5.35;;;2.53;;
64543;SDS011;50936;51.660;5.616;2023-06-04T13:51:35;7.57;;;2.40;;
64543;SDS011;50936;51.660;5.616;2023-06-04T13:54:02;6.65;;;2.30;;
64543;SDS011;50936;51.660;5.616;2023-06-04T13:56:29;7.38;;;2.60;;
64543;SDS011;50936;51.660;5.616;2023-06-04T13:58:56;5.43;;;2.03;;
64543;SDS011;50936;51.660;5.616;2023-06-04T14:01:23;8.27;;;2.50;;
64543;SDS011;50936;51.660;5.616;2023-06-04T14:03:50;7.07;;;2.65;;
64543;SDS011;50936;51.660;5.616;2023-06-04T14:06:18;6.20;;;2.22;;
64543;SDS011;50936;51.660;5.616;2023-06-04T14:08:45;6.60;;;2.63;;
64543;SDS011;50936;51.660;5.616;2023-06-04T14:11:12;4.07;;;2.03;;
64543;SDS011;50936;51.660;5.616;2023-06-04T14:13:39;6.07;;;2.05;;
64543;SDS011;50936;51.660;5.616;2023-06-04T14:16:07;5.40;;;2.03;;
64543;SDS011;50936;51.660;5.616;2023-06-04T14:18:34;5.88;;;2.10;;
64543;SDS011;50936;51.660;5.616;2023-06-04T14:21:01;5.05;;;2.08;;
64543;SDS011;50936;51.660;5.616;2023-06-04T14:23:28;6.32;;;2.20;;
64543;SDS011;50936;51.660;5.616;2023-06-04T14:25:55;7.00;;;2.30;;
64543;SDS011;50936;51.660;5.616;2023-06-04T14:28:22;6.30;;;2.00;;
64543;SDS011;50936;51.660;5.616;2023-06-04T14:30:49;7.15;;;2.28;;
64543;SDS011;50936;51.660;5.616;2023-06-04T14:33:16;6.00;;;2.50;;
64543;SDS011;50936;51.660;5.616;2023-06-04T14:35:43;5.30;;;1.95;;
64543;SDS011;50936;51.660;5.616;2023-06-04T14:38:14;5.72;;;2.30;;
64543;SDS011;50936;51.660;5.616;2023-06-04T14:40:42;6.65;;;2.55;;
64543;SDS011;50936;51.660;5.616;2023-06-04T14:43:10;6.18;;;2.03;;
64543;SDS011;50936;51.660;5.616;2023-06-04T14:45:38;6.65;;;2.33;;
64543;SDS011;50936;51.660;5.616;2023-06-04T14:48:06;4.63;;;1.70;;
64543;SDS011;50936;51.660;5.616;2023-06-04T14:50:42;4.53;;;1.95;;
64543;SDS011;50936;51.660;5.616;2023-06-04T14:53:11;6.28;;;2.17;;
64543;SDS011;50936;51.660;5.616;2023-06-04T14:55:38;6.25;;;2.40;;
64543;SDS011;50936;51.660;5.616;2023-06-04T14:58:07;5.07;;;2.20;;
64543;SDS011;50936;51.660;5.616;2023-06-04T15:00:33;5.43;;;1.83;;
64543;SDS011;50936;51.660;5.616;2023-06-04T15:03:00;4.40;;;2.22;;
64543;SDS011;50936;51.660;5.616;2023-06-04T15:05:30;4.07;;;2.03;;
64543;SDS011;50936;51.660;5.616;2023-06-04T15:07:58;5.18;;;1.92;;
64543;SDS011;50936;51.660;5.616;2023-06-04T15:10:26;6.35;;;2.08;;
64543;SDS011;50936;51.660;5.616;2023-06-04T15:12:53;3.88;;;2.05;;
64543;SDS011;50936;51.660;5.616;2023-06-04T15:15:21;4.85;;;1.98;;
64543;SDS011;50936;51.660;5.616;2023-06-04T15:17:49;4.38;;;2.25;;
64543;SDS011;50936;51.660;5.616;2023-06-04T15:20:16;9.52;;;2.22;;
64543;SDS011;50936;51.660;5.616;2023-06-04T15:22:43;4.32;;;1.92;;
64543;SDS011;50936;51.660;5.616;2023-06-04T15:25:10;6.18;;;2.15;;
64543;SDS011;50936;51.660;5.616;2023-06-04T15:27:37;4.70;;;1.83;;
64543;SDS011;50936;51.660;5.616;2023-06-04T15:30:05;4.97;;;1.77;;
64543;SDS011;50936;51.660;5.616;2023-06-04T15:32:33;5.53;;;2.10;;
64543;SDS011;50936;51.660;5.616;2023-06-04T15:35:03;6.07;;;2.75;;
64543;SDS011;50936;51.660;5.616;2023-06-04T15:37:30;5.93;;;2.70;;
64543;SDS011;50936;51.660;5.616;2023-06-04T15:39:57;7.25;;;3.05;;
64543;SDS011;50936;51.660;5.616;2023-06-04T15:42:26;9.23;;;3.92;;
64543;SDS011;50936;51.660;5.616;2023-06-04T15:44:53;8.07;;;3.25;;
64543;SDS011;50936;51.660;5.616;2023-06-04T15:47:20;8.75;;;3.38;;
64543;SDS011;50936;51.660;5.616;2023-06-04T15:49:47;11.35;;;3.42;;
64543;SDS011;50936;51.660;5.616;2023-06-04T15:52:14;11.02;;;3.38;;
64543;SDS011;50936;51.660;5.616;2023-06-04T15:54:41;8.05;;;3.97;;
64543;SDS011;50936;51.660;5.616;2023-06-04T15:57:12;9.88;;;3.90;;
64543;SDS011;50936;51.660;5.616;2023-06-04T15:59:40;11.98;;;4.47;;
64543;SDS011;50936;51.660;5.616;2023-06-04T16:02:08;10.80;;;3.83;;
64543;SDS011;50936;51.660;5.616;2023-06-04T16:04:35;12.13;;;4.15;;
64543;SDS011;50936;51.660;5.616;2023-06-04T16:07:02;10.68;;;4.82;;
64543;SDS011;50936;51.660;5.616;2023-06-04T16:09:31;8.57;;;3.67;;
64543;SDS011;50936;51.660;5.616;2023-06-04T16:11:58;9.88;;;3.90;;
64543;SDS011;50936;51.660;5.616;2023-06-04T16:14:25;10.55;;;3.83;;
64543;SDS011;50936;51.660;5.616;2023-06-04T16:16:52;9.20;;;3.83;;
64543;SDS011;50936;51.660;5.616;2023-06-04T16:19:19;11.80;;;3.60;;
64543;SDS011;50936;51.660;5.616;2023-06-04T16:21:46;9.98;;;4.28;;
64543;SDS011;50936;51.660;5.616;2023-06-04T16:24:13;12.68;;;4.03;;
64543;SDS011;50936;51.660;5.616;2023-06-04T16:26:40;9.38;;;3.70;;
64543;SDS011;50936;51.660;5.616;2023-06-04T16:29:07;9.88;;;3.92;;
64543;SDS011;50936;51.660;5.616;2023-06-04T16:31:34;9.25;;;3.50;;
64543;SDS011;50936;51.660;5.616;2023-06-04T16:34:03;9.55;;;3.92;;
64543;SDS011;50936;51.660;5.616;2023-06-04T16:36:29;9.57;;;3.67;;
64543;SDS011;50936;51.660;5.616;2023-06-04T16:38:59;14.23;;;3.92;;
64543;SDS011;50936;51.660;5.616;2023-06-04T16:41:26;10.05;;;3.88;;
64543;SDS011;50936;51.660;5.616;2023-06-04T16:43:53;10.77;;;3.45;;
64543;SDS011;50936;51.660;5.616;2023-06-04T16:46:20;9.70;;;3.47;;
64543;SDS011;50936;51.660;5.616;2023-06-04T16:48:47;7.40;;;3.50;;
64543;SDS011;50936;51.660;5.616;2023-06-04T16:51:14;6.53;;;3.22;;
64543;SDS011;50936;51.660;5.616;2023-06-04T16:53:40;8.90;;;3.45;;
64543;SDS011;50936;51.660;5.616;2023-06-04T16:56:08;10.43;;;3.40;;
64543;SDS011;50936;51.660;5.616;2023-06-04T16:58:39;9.25;;;3.70;;
64543;SDS011;50936;51.660;5.616;2023-06-04T17:01:07;7.70;;;3.30;;
64543;SDS011;50936;51.660;5.616;2023-06-04T17:03:37;8.88;;;3.58;;
64543;SDS011;50936;51.660;5.616;2023-06-04T17:06:04;8.50;;;3.58;;
64543;SDS011;50936;51.660;5.616;2023-06-04T17:08:32;9.80;;;3.10;;
64543;SDS011;50936;51.660;5.616;2023-06-04T17:10:59;9.32;;;2.90;;
64543;SDS011;50936;51.660;5.616;2023-06-04T17:13:26;9.88;;;3.20;;
64543;SDS011;50936;51.660;5.616;2023-06-04T17:15:53;8.75;;;3.90;;
64543;SDS011;50936;51.660;5.616;2023-06-04T17:18:21;6.63;;;3.22;;
64543;SDS011;50936;51.660;5.616;2023-06-04T17:20:48;7.45;;;2.70;;
64543;SDS011;50936;51.660;5.616;2023-06-04T17:23:21;6.65;;;3.08;;
64543;SDS011;50936;51.660;5.616;2023-06-04T17:25:51;7.43;;;3.05;;
64543;SDS011;50936;51.660;5.616;2023-06-04T17:28:19;6.32;;;2.63;;
64543;SDS011;50936;51.660;5.616;2023-06-04T17:30:46;7.18;;;3.00;;
64543;SDS011;50936;51.660;5.616;2023-06-04T17:33:13;7.88;;;2.95;;
64543;SDS011;50936;51.660;5.616;2023-06-04T17:35:41;6.95;;;2.78;;
64543;SDS011;50936;51.660;5.616;2023-06-04T17:38:08;6.82;;;2.70;;
64543;SDS011;50936;51.660;5.616;2023-06-04T17:40:35;6.90;;;2.65;;
64543;SDS011;50936;51.660;5.616;2023-06-04T17:43:02;7.55;;;2.85;;
64543;SDS011;50936;51.660;5.616;2023-06-04T17:45:29;5.25;;;2.70;;
64543;SDS011;50936;51.660;5.616;2023-06-04T17:47:56;5.68;;;2.60;;
64543;SDS011;50936;51.660;5.616;2023-06-04T17:50:24;5.97;;;2.80;;
64543;SDS011;50936;51.660;5.616;2023-06-04T17:52:51;7.90;;;3.05;;
64543;SDS011;50936;51.660;5.616;2023-06-04T17:55:18;6.32;;;2.78;;
64543;SDS011;50936;51.660;5.616;2023-06-04T17:57:45;15.07;;;2.83;;
64543;SDS011;50936;51.660;5.616;2023-06-04T18:00:12;7.72;;;2.65;;
64543;SDS011;50936;51.660;5.616;2023-06-04T18:02:40;6.68;;;2.83;;
64543;SDS011;50936;51.660;5.616;2023-06-04T18:05:08;11.77;;;3.30;;
64543;SDS011;50936;51.660;5.616;2023-06-04T18:07:35;9.00;;;2.90;;
64543;SDS011;50936;51.660;5.616;2023-06-04T18:10:03;4.80;;;2.55;;
64543;SDS011;50936;51.660;5.616;2023-06-04T18:12:33;8.23;;;2.80;;
64543;SDS011;50936;51.660;5.616;2023-06-04T18:15:02;7.85;;;2.90;;
64543;SDS011;50936;51.660;5.616;2023-06-04T18:17:33;6.03;;;2.70;;
64543;SDS011;50936;51.660;5.616;2023-06-04T18:20:00;5.63;;;2.90;;
64543;SDS011;50936;51.660;5.616;2023-06-04T18:22:27;7.78;;;3.42;;
64543;SDS011;50936;51.660;5.616;2023-06-04T18:24:55;8.77;;;2.70;;
64543;SDS011;50936;51.660;5.616;2023-06-04T18:27:22;5.65;;;2.88;;
64543;SDS011;50936;51.660;5.616;2023-06-04T18:29:49;6.07;;;2.75;;
64543;SDS011;50936;51.660;5.616;2023-06-04T18:32:16;7.65;;;2.95;;
64543;SDS011;50936;51.660;5.616;2023-06-04T18:34:44;7.97;;;2.80;;
64543;SDS011;50936;51.660;5.616;2023-06-04T18:37:11;5.10;;;2.47;;
64543;SDS011;50936;51.660;5.616;2023-06-04T18:39:39;7.85;;;2.80;;
64543;SDS011;50936;51.660;5.616;2023-06-04T18:42:06;5.10;;;2.30;;
64543;SDS011;50936;51.660;5.616;2023-06-04T18:44:55;3.40;;;2.22;;
64543;SDS011;50936;51.660;5.616;2023-06-04T18:47:23;6.72;;;2.67;;
64543;SDS011;50936;51.660;5.616;2023-06-04T18:49:51;4.78;;;2.40;;
64543;SDS011;50936;51.660;5.616;2023-06-04T18:52:18;4.97;;;2.35;;
64543;SDS011;50936;51.660;5.616;2023-06-04T18:54:44;6.32;;;2.78;;
64543;SDS011;50936;51.660;5.616;2023-06-04T18:57:11;5.53;;;2.40;;
64543;SDS011;50936;51.660;5.616;2023-06-04T18:59:40;4.30;;;2.38;;
64543;SDS011;50936;51.660;5.616;2023-06-04T19:02:07;5.22;;;2.60;;
64543;SDS011;50936;51.660;5.616;2023-06-04T19:04:34;5.80;;;2.47;;
64543;SDS011;50936;51.660;5.616;2023-06-04T19:07:01;4.45;;;2.20;;
64543;SDS011;50936;51.660;5.616;2023-06-04T19:09:29;5.00;;;2.65;;
64543;SDS011;50936;51.660;5.616;2023-06-04T19:11:56;5.97;;;2.55;;
64543;SDS011;50936;51.660;5.616;2023-06-04T19:14:23;7.40;;;2.65;;
64543;SDS011;50936;51.660;5.616;2023-06-04T19:16:50;4.85;;;2.67;;
64543;SDS011;50936;51.660;5.616;2023-06-04T19:19:19;4.70;;;2.40;;
64543;SDS011;50936;51.660;5.616;2023-06-04T19:21:47;5.15;;;2.30;;
64543;SDS011;50936;51.660;5.616;2023-06-04T19:24:19;6.43;;;2.30;;
64543;SDS011;50936;51.660;5.616;2023-06-04T19:26:47;4.97;;;2.60;;
64543;SDS011;50936;51.660;5.616;2023-06-04T19:29:15;6.50;;;3.00;;
64543;SDS011;50936;51.660;5.616;2023-06-04T19:31:42;5.13;;;2.50;;
64543;SDS011;50936;51.660;5.616;2023-06-04T19:34:09;5.18;;;2.30;;
64543;SDS011;50936;51.660;5.616;2023-06-04T19:36:36;7.70;;;2.20;;
64543;SDS011;50936;51.660;5.616;2023-06-04T19:39:03;5.50;;;2.25;;
64543;SDS011;50936;51.660;5.616;2023-06-04T19:41:29;4.97;;;2.65;;
64543;SDS011;50936;51.660;5.616;2023-06-04T19:43:56;5.35;;;2.47;;
64543;SDS011;50936;51.660;5.616;2023-06-04T19:46:23;4.30;;;2.33;;
64543;SDS011;50936;51.660;5.616;2023-06-04T19:48:50;6.22;;;2.40;;
64543;SDS011;50936;51.660;5.616;2023-06-04T19:51:17;6.13;;;2.35;;
64543;SDS011;50936;51.660;5.616;2023-06-04T19:53:44;5.70;;;2.20;;
64543;SDS011;50936;51.660;5.616;2023-06-04T19:56:11;5.60;;;2.40;;
64543;SDS011;50936;51.660;5.616;2023-06-04T19:58:38;4.43;;;2.20;;
64543;SDS011;50936;51.660;5.616;2023-06-04T20:01:05;5.07;;;2.63;;
64543;SDS011;50936;51.660;5.616;2023-06-04T20:03:32;6.32;;;2.72;;
64543;SDS011;50936;51.660;5.616;2023-06-04T20:06:01;5.78;;;2.83;;
64543;SDS011;50936;51.660;5.616;2023-06-04T20:08:28;5.45;;;2.70;;
64543;SDS011;50936;51.660;5.616;2023-06-04T20:10:54;6.40;;;2.78;;
64543;SDS011;50936;51.660;5.616;2023-06-04T20:13:21;5.38;;;2.85;;
64543;SDS011;50936;51.660;5.616;2023-06-04T20:15:48;6.00;;;2.97;;
64543;SDS011;50936;51.660;5.616;2023-06-04T20:18:15;5.35;;;2.60;;
64543;SDS011;50936;51.660;5.616;2023-06-04T20:20:42;4.88;;;2.58;;
64543;SDS011;50936;51.660;5.616;2023-06-04T20:23:09;5.53;;;2.45;;
64543;SDS011;50936;51.660;5.616;2023-06-04T20:25:36;5.03;;;2.75;;
64543;SDS011;50936;51.660;5.616;2023-06-04T20:28:03;4.60;;;2.40;;
64543;SDS011;50936;51.660;5.616;2023-06-04T20:30:30;5.30;;;2.40;;
64543;SDS011;50936;51.660;5.616;2023-06-04T20:32:57;6.53;;;3.10;;
64543;SDS011;50936;51.660;5.616;2023-06-04T20:35:24;5.93;;;2.22;;
64543;SDS011;50936;51.660;5.616;2023-06-04T20:37:51;4.43;;;2.50;;
64543;SDS011;50936;51.660;5.616;2023-06-04T20:40:23;3.50;;;2.10;;
64543;SDS011;50936;51.660;5.616;2023-06-04T20:42:50;6.38;;;2.60;;
64543;SDS011;50936;51.660;5.616;2023-06-04T20:45:17;4.45;;;2.35;;
64543;SDS011;50936;51.660;5.616;2023-06-04T20:47:44;4.75;;;2.40;;
64543;SDS011;50936;51.660;5.616;2023-06-04T20:50:11;4.15;;;2.20;;
64543;SDS011;50936;51.660;5.616;2023-06-04T20:52:38;4.35;;;2.40;;
64543;SDS011;50936;51.660;5.616;2023-06-04T20:55:06;4.57;;;2.30;;
64543;SDS011;50936;51.660;5.616;2023-06-04T20:57:33;4.57;;;2.30;;
64543;SDS011;50936;51.660;5.616;2023-06-04T21:00:01;4.35;;;2.38;;
64543;SDS011;50936;51.660;5.616;2023-06-04T21:02:29;3.75;;;2.30;;
64543;SDS011;50936;51.660;5.616;2023-06-04T21:04:56;5.35;;;2.10;;
64543;SDS011;50936;51.660;5.616;2023-06-04T21:07:23;5.15;;;2.40;;
64543;SDS011;50936;51.660;5.616;2023-06-04T21:09:50;6.05;;;2.58;;
64543;SDS011;50936;51.660;5.616;2023-06-04T21:12:17;4.82;;;2.00;;
64543;SDS011;50936;51.660;5.616;2023-06-04T21:14:44;5.43;;;2.70;;
64543;SDS011;50936;51.660;5.616;2023-06-04T21:17:11;4.95;;;2.28;;
64543;SDS011;50936;51.660;5.616;2023-06-04T21:19:38;4.22;;;2.35;;
64543;SDS011;50936;51.660;5.616;2023-06-04T21:22:04;4.18;;;2.45;;
64543;SDS011;50936;51.660;5.616;2023-06-04T21:24:31;3.55;;;2.00;;
64543;SDS011;50936;51.660;5.616;2023-06-04T21:26:58;5.60;;;2.05;;
64543;SDS011;50936;51.660;5.616;2023-06-04T21:29:25;4.30;;;2.40;;
64543;SDS011;50936;51.660;5.616;2023-06-04T21:31:52;3.25;;;1.92;;
64543;SDS011;50936;51.660;5.616;2023-06-04T21:34:19;3.58;;;1.85;;
64543;SDS011;50936;51.660;5.616;2023-06-04T21:36:47;8.57;;;2.30;;
64543;SDS011;50936;51.660;5.616;2023-06-04T21:39:14;4.00;;;2.33;;
64543;SDS011;50936;51.660;5.616;2023-06-04T21:41:41;6.20;;;2.05;;
64543;SDS011;50936;51.660;5.616;2023-06-04T21:44:07;7.95;;;2.28;;
64543;SDS011;50936;51.660;5.616;2023-06-04T21:46:35;8.00;;;2.20;;
64543;SDS011;50936;51.660;5.616;2023-06-04T21:49:02;6.85;;;2.38;;
64543;SDS011;50936;51.660;5.616;2023-06-04T21:51:29;7.88;;;2.13;;
64543;SDS011;50936;51.660;5.616;2023-06-04T21:53:55;4.43;;;1.85;;
64543;SDS011;50936;51.660;5.616;2023-06-04T21:56:22;4.15;;;1.92;;
64543;SDS011;50936;51.660;5.616;2023-06-04T21:58:49;4.05;;;2.00;;
64543;SDS011;50936;51.660;5.616;2023-06-04T22:01:16;6.13;;;2.38;;
64543;SDS011;50936;51.660;5.616;2023-06-04T22:03:43;4.45;;;1.80;;
64543;SDS011;50936;51.660;5.616;2023-06-04T22:06:10;4.38;;;1.95;;
64543;SDS011;50936;51.660;5.616;2023-06-04T22:08:37;3.70;;;1.70;;